createdAt,value
2022-07-28T00:02:56.524Z,10.60
2022-07-28T00:08:01.476Z,10.10
2022-07-28T00:13:07.390Z,10.10
2022-07-28T00:18:13.331Z,10.30
2022-07-28T00:23:18.196Z,10.20
2022-07-28T00:28:23.247Z,10.10
2022-07-28T00:33:28.587Z,10.10
2022-07-28T00:38:34.226Z,9.80
2022-07-28T00:43:44.006Z,9.60
2022-07-28T00:48:51.674Z,9.50
2022-07-28T00:53:57.646Z,9.80
2022-07-28T00:59:04.523Z,9.70
2022-07-28T01:04:09.994Z,9.70
2022-07-28T01:09:40.450Z,9.70
2022-07-28T01:14:55.602Z,9.70
2022-07-28T01:20:09.695Z,9.70
2022-07-28T01:25:23.990Z,9.40
2022-07-28T01:30:43.515Z,9.60
2022-07-28T01:35:55.070Z,9.50
2022-07-28T01:41:02.322Z,9.30
2022-07-28T01:46:09.392Z,9.60
2022-07-28T01:51:16.620Z,9.40
2022-07-28T01:56:23.191Z,9.40
2022-07-28T02:01:30.339Z,9.40
2022-07-28T02:06:36.446Z,9.30
2022-07-28T02:11:44.594Z,9.40
2022-07-28T02:16:52.927Z,9.00
2022-07-28T02:21:58.586Z,9.00
2022-07-28T02:27:21.102Z,8.90
2022-07-28T02:32:45.458Z,8.90
2022-07-28T02:37:57.414Z,8.60
2022-07-28T02:43:04.238Z,8.90
2022-07-28T02:48:13.432Z,8.60
2022-07-28T02:53:18.932Z,8.70
2022-07-28T02:58:26.429Z,8.60
2022-07-28T03:03:32.845Z,8.50
2022-07-28T03:08:38.225Z,8.70
2022-07-28T03:13:44.213Z,8.80
2022-07-28T03:18:50.403Z,8.80
2022-07-28T03:23:57.082Z,9.10
2022-07-28T03:29:03.879Z,9.00
2022-07-28T03:34:11.155Z,9.10
2022-07-28T03:39:18.814Z,8.90
2022-07-28T03:44:28.955Z,8.70
2022-07-28T03:49:32.850Z,9.10
2022-07-28T03:54:38.221Z,9.40
2022-07-28T03:59:43.221Z,9.20
2022-07-28T04:04:48.985Z,9.40
2022-07-28T04:09:54.043Z,9.90
2022-07-28T04:14:59.562Z,9.70
2022-07-28T04:20:05.233Z,10.00
2022-07-28T04:25:12.850Z,10.20
2022-07-28T04:30:21.328Z,10.60
2022-07-28T04:35:28.218Z,10.80
2022-07-28T04:40:34.535Z,11.10
2022-07-28T04:45:39.960Z,11.10
2022-07-28T04:50:46.936Z,11.10
2022-07-28T04:55:53.623Z,11.50
2022-07-28T05:01:00.603Z,11.90
2022-07-28T05:06:06.678Z,12.20
2022-07-28T05:11:12.441Z,12.40
2022-07-28T05:16:18.283Z,12.60
2022-07-28T05:21:23.438Z,12.90
2022-07-28T05:26:30.677Z,13.10
2022-07-28T05:31:36.522Z,13.50
2022-07-28T05:36:42.491Z,13.90
2022-07-28T05:41:47.746Z,14.10
2022-07-28T05:46:53.466Z,14.50
2022-07-28T05:51:59.643Z,14.80
2022-07-28T05:57:04.982Z,15.00
2022-07-28T06:02:12.794Z,15.10
2022-07-28T06:07:18.131Z,15.40
2022-07-28T06:12:23.783Z,15.80
2022-07-28T06:17:29.764Z,16.10
2022-07-28T06:22:50.108Z,16.40
2022-07-28T06:27:58.290Z,16.60
2022-07-28T06:33:04.841Z,16.80
2022-07-28T06:38:10.475Z,17.30
2022-07-28T06:43:17.529Z,17.40
2022-07-28T06:48:25.841Z,17.90
2022-07-28T06:53:33.488Z,18.00
2022-07-28T06:58:37.383Z,18.70
2022-07-28T07:03:43.272Z,18.50
2022-07-28T07:08:49.131Z,19.00
2022-07-28T07:13:54.468Z,18.90
2022-07-28T07:18:59.681Z,19.30
2022-07-28T07:24:05.330Z,19.90
2022-07-28T07:29:11.446Z,19.50
2022-07-28T07:34:17.515Z,19.20
2022-07-28T07:39:23.355Z,19.60
2022-07-28T07:44:29.061Z,19.10
2022-07-28T07:49:43.435Z,19.60
2022-07-28T07:54:41.780Z,19.40
2022-07-28T07:59:47.771Z,20.00
2022-07-28T08:04:52.769Z,19.40
2022-07-28T08:09:58.352Z,19.20
2022-07-28T08:15:05.172Z,19.30
2022-07-28T08:20:11.794Z,19.90
2022-07-28T08:25:17.715Z,20.50
2022-07-28T08:30:25.245Z,20.70
2022-07-28T08:35:33.683Z,20.70
2022-07-28T08:40:41.346Z,20.20
2022-07-28T08:45:50.093Z,20.70
2022-07-28T08:50:58.322Z,21.30
2022-07-28T08:56:12.397Z,22.20
2022-07-28T09:01:18.547Z,21.50
2022-07-28T09:06:24.583Z,21.90
2022-07-28T09:11:30.704Z,21.90
2022-07-28T09:16:35.539Z,21.40
2022-07-28T09:21:42.255Z,21.60
2022-07-28T09:27:02.361Z,22.00
2022-07-28T09:32:08.683Z,21.30
2022-07-28T09:37:28.680Z,21.50
2022-07-28T09:42:36.730Z,20.80
2022-07-28T09:47:44.102Z,21.40
2022-07-28T09:52:49.455Z,22.30
2022-07-28T09:57:55.755Z,22.20
2022-07-28T10:03:02.391Z,22.50
2022-07-28T10:08:08.058Z,23.00
2022-07-28T10:13:14.099Z,22.30
2022-07-28T10:18:19.465Z,23.00
2022-07-28T10:23:24.920Z,22.60
2022-07-28T10:28:35.643Z,22.60
2022-07-28T10:33:44.604Z,23.20
2022-07-28T10:38:52.335Z,23.70
2022-07-28T10:43:58.622Z,23.80
2022-07-28T10:49:05.058Z,23.70
2022-07-28T10:54:25.136Z,23.70
2022-07-28T11:00:12.140Z,24.20
2022-07-28T11:05:17.666Z,24.60
2022-07-28T11:10:23.691Z,24.00
2022-07-28T11:15:38.258Z,23.10
2022-07-28T11:21:00.444Z,23.90
2022-07-28T11:26:24.324Z,24.00
2022-07-28T11:31:51.704Z,23.80
2022-07-28T11:37:15.034Z,24.30
2022-07-28T11:42:33.940Z,24.30
2022-07-28T11:47:40.094Z,24.60
2022-07-28T11:52:56.676Z,24.80
2022-07-28T11:58:06.024Z,24.30
2022-07-28T12:03:11.754Z,23.80
2022-07-28T12:08:18.071Z,24.30
2022-07-28T12:13:27.850Z,24.20
2022-07-28T12:18:33.975Z,25.10
2022-07-28T12:23:45.763Z,24.60
2022-07-28T12:28:55.234Z,24.90
2022-07-28T12:34:06.357Z,25.10
2022-07-28T12:39:13.387Z,24.70
2022-07-28T12:44:17.974Z,25.00
2022-07-28T12:49:23.482Z,25.40
2022-07-28T12:54:29.606Z,24.50
2022-07-28T12:59:36.620Z,24.50
2022-07-28T13:04:50.127Z,24.30
2022-07-28T13:10:07.355Z,25.10
2022-07-28T13:15:17.769Z,25.60
2022-07-28T13:20:24.677Z,25.30
2022-07-28T13:25:30.553Z,24.50
2022-07-28T13:30:37.227Z,24.20
2022-07-28T13:35:42.394Z,24.40
2022-07-28T13:40:47.858Z,24.10
2022-07-28T13:45:52.059Z,24.80
2022-07-28T13:50:57.444Z,25.20
2022-07-28T13:56:02.581Z,25.20
2022-07-28T14:01:08.729Z,24.80
2022-07-28T14:06:13.936Z,24.80
2022-07-28T14:11:19.485Z,25.10
2022-07-28T14:16:25.079Z,25.30
2022-07-28T14:21:31.455Z,24.90
2022-07-28T14:26:38.356Z,25.20
2022-07-28T14:31:44.048Z,25.30
2022-07-28T14:36:50.818Z,25.20
2022-07-28T14:41:56.055Z,24.90
2022-07-28T14:47:01.405Z,25.10
2022-07-28T14:52:05.749Z,25.30
2022-07-28T14:57:10.580Z,25.00
2022-07-28T15:02:18.198Z,25.40
2022-07-28T15:07:23.575Z,25.20
2022-07-28T15:12:29.603Z,25.10
2022-07-28T15:17:36.896Z,25.30
2022-07-28T15:22:42.389Z,25.20
2022-07-28T15:27:47.571Z,25.20
2022-07-28T15:32:56.043Z,24.70
2022-07-28T15:38:01.440Z,24.70
2022-07-28T15:43:06.307Z,24.70
2022-07-28T15:48:11.364Z,25.10
2022-07-28T15:53:18.539Z,24.80
2022-07-28T15:58:26.770Z,24.90
2022-07-28T16:03:32.122Z,23.90
2022-07-28T16:08:37.743Z,24.30
2022-07-28T16:13:43.775Z,24.20
2022-07-28T16:18:50.361Z,24.10
2022-07-28T16:23:56.301Z,24.00
2022-07-28T16:29:02.602Z,23.90
2022-07-28T16:34:07.925Z,23.80
2022-07-28T16:39:12.842Z,23.80
2022-07-28T16:44:20.043Z,23.60
2022-07-28T16:49:25.530Z,23.50
2022-07-28T16:54:31.669Z,23.00
2022-07-28T16:59:48.505Z,22.80
2022-07-28T17:04:44.337Z,22.40
2022-07-28T17:09:49.448Z,22.30
2022-07-28T17:14:54.641Z,22.30
2022-07-28T17:20:02.032Z,22.50
2022-07-28T17:25:28.403Z,22.00
2022-07-28T17:30:15.767Z,21.80
2022-07-28T17:35:34.966Z,21.80
2022-07-28T17:40:28.699Z,21.80
2022-07-28T17:45:34.798Z,21.70
2022-07-28T17:50:40.450Z,21.50
2022-07-28T17:56:00.614Z,21.30
2022-07-28T18:00:54.918Z,21.10
2022-07-28T18:06:00.210Z,21.00
2022-07-28T18:11:06.558Z,20.70
2022-07-28T18:16:12.286Z,20.70
2022-07-28T18:21:18.541Z,20.30
2022-07-28T18:26:23.719Z,20.00
2022-07-28T18:31:28.935Z,20.20
2022-07-28T18:36:35.130Z,20.30
2022-07-28T18:41:47.042Z,20.20
2022-07-28T18:46:47.468Z,20.00
2022-07-28T18:51:54.098Z,19.60
2022-07-28T18:57:00.189Z,19.30
2022-07-28T19:02:05.516Z,19.00
2022-07-28T19:07:11.781Z,18.60
2022-07-28T19:12:17.161Z,18.50
2022-07-28T19:17:26.080Z,18.30
2022-07-28T19:22:29.863Z,17.80
2022-07-28T19:27:36.501Z,17.80
2022-07-28T19:32:42.160Z,17.50
2022-07-28T19:37:47.530Z,17.20
2022-07-28T19:42:53.561Z,16.70
2022-07-28T19:47:59.071Z,17.10
2022-07-28T19:53:05.442Z,16.40
2022-07-28T19:58:11.697Z,16.30
2022-07-28T20:04:00.842Z,16.50
2022-07-28T20:08:30.193Z,16.20
2022-07-28T20:13:37.646Z,16.20
2022-07-28T20:18:43.925Z,16.00
2022-07-28T20:23:49.567Z,15.40
2022-07-28T20:28:58.004Z,16.00
2022-07-28T20:34:04.717Z,15.80
2022-07-28T20:39:34.453Z,15.30
2022-07-28T20:44:29.791Z,15.60
2022-07-28T20:49:25.636Z,15.70
2022-07-28T20:54:31.007Z,14.90
2022-07-28T20:59:36.259Z,15.00
2022-07-28T21:04:41.234Z,14.90
2022-07-28T21:09:48.609Z,15.20
2022-07-28T21:14:54.524Z,15.10
2022-07-28T21:19:59.474Z,14.80
2022-07-28T21:25:05.190Z,14.60
2022-07-28T21:30:12.249Z,14.60
2022-07-28T21:35:17.829Z,14.50
2022-07-28T21:40:25.025Z,14.10
2022-07-28T21:45:30.318Z,14.00
2022-07-28T21:50:37.747Z,13.50
2022-07-28T21:55:42.975Z,13.60
2022-07-28T22:00:48.967Z,13.80
2022-07-28T22:05:54.670Z,13.70
2022-07-28T22:11:00.565Z,13.70
2022-07-28T22:16:05.875Z,13.40
2022-07-28T22:21:12.843Z,13.50
2022-07-28T22:26:19.640Z,13.40
2022-07-28T22:31:25.703Z,13.20
2022-07-28T22:36:30.742Z,13.60
2022-07-28T22:41:36.133Z,13.40
2022-07-28T22:46:41.119Z,13.30
2022-07-28T22:51:49.192Z,13.30
2022-07-28T22:56:54.949Z,13.40
2022-07-28T23:01:59.948Z,13.40
2022-07-28T23:07:04.844Z,13.50
2022-07-28T23:12:12.346Z,13.10
2022-07-28T23:17:17.922Z,13.10
2022-07-28T23:22:23.600Z,13.10
2022-07-28T23:27:29.099Z,13.30
2022-07-28T23:32:34.134Z,13.20
2022-07-28T23:37:39.809Z,13.10
2022-07-28T23:42:45.225Z,13.20
2022-07-28T23:47:52.872Z,13.10
2022-07-28T23:52:57.496Z,13.30
2022-07-28T23:58:04.306Z,13.10
